Terminal Aerodrome Forecast
Issued by NWS Atlanta, GA

Home | Current Version | Previous Version | Text Only | Print | Product List | Glossary On
Versions: 1 2 3 4 5 6 7 8 9 10 11 12 13 14 15 16 17 18 19 20 21 22 23 24 25 26 27 28 29 30 31 32 33 34 35 36 37 38 39 40
503
FTUS42 KFFC 221349 AAA
TAFATL
TAF AMD
KATL 221349Z 2214/2318 13006KT P6SM OVC009
     FM221500 15005KT P6SM VCSH BKN012
     FM221700 15006KT P6SM SHRA BKN035
      TEMPO 2218/2222 4SM TSRA OVC015CB
     FM230300 15004KT P6SM SCT035 BKN050
     FM230800 16004KT P6SM OVC015
     FM231000 18004KT P6SM OVC006
     FM231600 19004KT P6SM OVC020=

USA.gov is the U.S. government's official web portal to all federal, state and local government web resources and services.